createdAt,value
2019-02-19T00:02:27.657Z,12.67
2019-02-19T00:05:12.435Z,12.30
2019-02-19T00:07:41.975Z,13.17
2019-02-19T00:10:11.535Z,12.50
2019-02-19T00:12:41.046Z,12.03
2019-02-19T00:15:10.655Z,13.30
2019-02-19T00:17:41.053Z,12.57
2019-02-19T00:20:10.558Z,12.83
2019-02-19T00:22:40.413Z,13.50
2019-02-19T00:25:17.619Z,12.97
2019-02-19T00:27:47.722Z,12.60
2019-02-19T00:30:17.259Z,12.27
2019-02-19T00:32:46.796Z,13.60
2019-02-19T00:35:16.400Z,11.70
2019-02-19T00:37:45.942Z,12.50
2019-02-19T00:40:33.372Z,11.60
2019-02-19T00:43:02.921Z,12.53
2019-02-19T00:45:32.474Z,13.20
2019-02-19T00:48:02.488Z,12.90
2019-02-19T00:50:32.007Z,12.60
2019-02-19T00:53:01.572Z,12.03
2019-02-19T00:55:31.119Z,12.27
2019-02-19T00:58:00.717Z,13.00
2019-02-19T01:00:31.332Z,12.57
2019-02-19T01:03:00.900Z,12.97
2019-02-19T01:05:30.421Z,12.00
2019-02-19T01:08:00.737Z,11.90
2019-02-19T01:10:30.264Z,12.43
2019-02-19T01:13:24.062Z,11.70
2019-02-19T01:15:54.677Z,11.77
2019-02-19T01:18:35.587Z,13.17
2019-02-19T01:21:05.484Z,12.40
2019-02-19T01:23:35.082Z,11.40
2019-02-19T01:26:05.414Z,12.63
2019-02-19T01:28:35.232Z,12.00
2019-02-19T01:31:05.157Z,11.63
2019-02-19T01:33:35.470Z,12.60
2019-02-19T01:36:05.343Z,12.40
2019-02-19T01:38:34.981Z,12.07
2019-02-19T01:41:04.899Z,12.00
2019-02-19T01:43:34.577Z,13.83
2019-02-19T01:46:31.320Z,12.07
2019-02-19T01:49:00.867Z,11.37
2019-02-19T01:51:30.426Z,10.90
2019-02-19T01:53:59.927Z,11.20
2019-02-19T01:56:29.445Z,11.60
2019-02-19T01:58:58.951Z,12.10
2019-02-19T02:01:43.436Z,12.80
2019-02-19T02:04:12.984Z,12.40
2019-02-19T02:06:42.985Z,12.30
2019-02-19T02:09:12.539Z,14.03
2019-02-19T02:11:42.482Z,14.20
2019-02-19T02:14:12.049Z,14.17
2019-02-19T02:16:41.934Z,13.17
2019-02-19T02:19:11.430Z,13.33
2019-02-19T02:21:41.065Z,13.33
2019-02-19T02:24:10.603Z,13.90
2019-02-19T02:26:40.537Z,13.03
2019-02-19T02:29:10.073Z,12.57
2019-02-19T02:31:39.567Z,12.70
2019-02-19T02:34:09.129Z,12.00
2019-02-19T02:36:38.980Z,12.23
2019-02-19T02:39:08.767Z,11.90
2019-02-19T02:42:15.381Z,11.93
2019-02-19T02:44:44.938Z,11.43
2019-02-19T02:47:14.464Z,11.10
2019-02-19T02:49:44.393Z,11.50
2019-02-19T02:52:14.029Z,12.37
2019-02-19T02:54:43.685Z,11.10
2019-02-19T02:57:13.232Z,12.27
2019-02-19T02:59:51.826Z,11.20
2019-02-19T03:02:21.891Z,11.77
2019-02-19T03:04:54.874Z,11.63
2019-02-19T03:07:43.334Z,10.60
2019-02-19T03:10:13.291Z,10.60
2019-02-19T03:12:42.832Z,10.80
2019-02-19T03:15:13.006Z,10.27
2019-02-19T03:17:42.527Z,11.27
2019-02-19T03:20:12.085Z,11.40
2019-02-19T03:22:41.941Z,10.27
2019-02-19T03:25:11.515Z,10.80
2019-02-19T03:27:41.055Z,10.70
2019-02-19T03:30:11.492Z,9.97
2019-02-19T03:32:43.126Z,11.17
2019-02-19T03:38:41.884Z,10.30
2019-02-19T03:41:12.255Z,10.07
2019-02-19T03:43:41.767Z,9.97
2019-02-19T03:46:12.414Z,9.73
2019-02-19T03:49:00.908Z,9.27
2019-02-19T03:51:30.447Z,9.13
2019-02-19T03:54:00.334Z,8.80
2019-02-19T03:56:30.375Z,9.10
2019-02-19T03:59:00.602Z,9.33
2019-02-19T04:01:30.132Z,9.13
2019-02-19T04:03:59.780Z,8.13
2019-02-19T04:06:46.703Z,8.50
2019-02-19T04:09:16.317Z,8.47
2019-02-19T04:11:46.263Z,7.87
2019-02-19T04:14:15.780Z,7.50
2019-02-19T04:16:45.684Z,8.20
2019-02-19T04:19:15.628Z,8.87
2019-02-19T04:21:45.225Z,8.80
2019-02-19T04:24:15.088Z,9.33
2019-02-19T04:26:44.621Z,10.43
2019-02-19T04:29:14.194Z,9.60
2019-02-19T04:31:43.949Z,11.50
2019-02-19T04:34:13.520Z,9.80
2019-02-19T04:36:43.073Z,8.00
2019-02-19T04:39:12.660Z,8.30
2019-02-19T04:41:42.219Z,8.30
2019-02-19T04:44:11.770Z,7.20
2019-02-19T04:46:41.683Z,6.70
2019-02-19T04:49:11.228Z,6.90
2019-02-19T04:51:40.793Z,7.07
2019-02-19T04:54:10.280Z,6.30
2019-02-19T04:56:40.184Z,5.43
2019-02-19T04:59:10.448Z,5.53
2019-02-19T05:01:54.490Z,5.90
2019-02-19T05:04:24.420Z,6.07
2019-02-19T05:06:53.932Z,6.50
2019-02-19T05:09:23.480Z,5.37
2019-02-19T05:11:53.018Z,5.80
2019-02-19T05:14:35.050Z,6.17
2019-02-19T05:17:04.565Z,5.87
2019-02-19T05:19:34.139Z,6.53
2019-02-19T05:22:03.655Z,5.17
2019-02-19T05:24:33.178Z,5.80
2019-02-19T05:27:03.065Z,6.10
2019-02-19T05:29:32.640Z,6.17
2019-02-19T05:32:02.672Z,6.10
2019-02-19T05:34:32.159Z,6.10
2019-02-19T05:37:01.694Z,5.97
2019-02-19T05:39:31.649Z,6.37
2019-02-19T05:42:01.175Z,6.23
2019-02-19T05:44:31.427Z,6.50
2019-02-19T05:47:01.283Z,6.87
2019-02-19T05:49:30.788Z,6.67
2019-02-19T05:52:12.737Z,6.63
2019-02-19T05:55:04.762Z,7.03
2019-02-19T05:57:34.295Z,6.57
2019-02-19T06:00:04.832Z,6.70
2019-02-19T06:02:34.387Z,6.20
2019-02-19T06:05:05.860Z,6.43
2019-02-19T06:07:35.413Z,6.77
2019-02-19T06:10:06.026Z,6.60
2019-02-19T06:12:47.945Z,7.60
2019-02-19T06:15:30.145Z,6.17
2019-02-19T06:18:07.833Z,6.50
2019-02-19T06:20:37.353Z,6.97
2019-02-19T06:23:06.924Z,7.10
2019-02-19T06:25:36.639Z,6.60
2019-02-19T06:28:06.156Z,6.40
2019-02-19T06:31:01.032Z,6.47
2019-02-19T06:33:30.546Z,6.50
2019-02-19T06:36:00.142Z,6.97
2019-02-19T06:38:30.458Z,6.37
2019-02-19T06:41:01.959Z,6.17
2019-02-19T06:43:39.296Z,6.60
2019-02-19T06:46:08.846Z,6.33
2019-02-19T06:48:39.045Z,5.60
2019-02-19T06:51:08.599Z,6.57
2019-02-19T06:53:38.757Z,6.33
2019-02-19T06:56:08.279Z,6.57
2019-02-19T06:58:37.915Z,6.30
2019-02-19T07:01:12.964Z,6.53
2019-02-19T07:04:07.571Z,6.10
2019-02-19T07:06:37.097Z,6.27
2019-02-19T07:09:06.975Z,7.10
2019-02-19T07:11:36.878Z,6.40
2019-02-19T07:14:06.788Z,6.97
2019-02-19T07:16:36.307Z,6.37
2019-02-19T07:19:05.847Z,6.90
2019-02-19T07:21:35.371Z,6.93
2019-02-19T07:24:04.918Z,6.80
2019-02-19T07:26:34.446Z,6.17
2019-02-19T07:29:03.968Z,6.80
2019-02-19T07:31:48.333Z,6.53
2019-02-19T07:34:17.842Z,6.73
2019-02-19T07:36:48.064Z,7.50
2019-02-19T07:39:17.608Z,6.43
2019-02-19T07:41:47.154Z,7.20
2019-02-19T07:44:16.690Z,6.60
2019-02-19T07:46:46.201Z,7.17
2019-02-19T07:49:16.416Z,7.97
2019-02-19T07:51:45.933Z,7.03
2019-02-19T07:54:15.487Z,7.37
2019-02-19T07:56:45.455Z,6.90
2019-02-19T07:59:14.964Z,7.10
2019-02-19T08:01:44.855Z,7.57
2019-02-19T08:04:15.167Z,6.97
2019-02-19T08:06:44.691Z,6.50
2019-02-19T08:09:14.901Z,6.50
2019-02-19T08:11:44.767Z,7.33
2019-02-19T08:14:15.042Z,6.97
2019-02-19T08:16:44.557Z,6.70
2019-02-19T08:19:14.099Z,6.90
2019-02-19T08:21:44.404Z,6.93
2019-02-19T08:24:13.943Z,6.33
2019-02-19T08:26:43.431Z,7.60
2019-02-19T08:29:14.047Z,7.67
2019-02-19T08:31:43.676Z,6.30
2019-02-19T08:34:13.191Z,6.90
2019-02-19T08:36:42.733Z,9.27
2019-02-19T08:39:38.516Z,6.37
2019-02-19T08:42:08.580Z,5.90
2019-02-19T08:44:38.098Z,5.83
2019-02-19T08:47:07.628Z,5.83
2019-02-19T08:49:43.460Z,5.77
2019-02-19T08:52:13.351Z,5.57
2019-02-19T08:54:43.159Z,6.17
2019-02-19T08:57:12.691Z,5.73
2019-02-19T08:59:42.685Z,5.93
2019-02-19T09:02:12.501Z,6.80
2019-02-19T09:04:42.475Z,6.03
2019-02-19T09:07:11.974Z,6.10
2019-02-19T09:10:01.181Z,5.77
2019-02-19T09:12:31.110Z,5.97
2019-02-19T09:15:00.634Z,6.43
2019-02-19T09:17:31.025Z,6.40
2019-02-19T09:20:00.944Z,6.73
2019-02-19T09:22:30.495Z,6.13
2019-02-19T09:25:00.028Z,6.50
2019-02-19T09:27:30.418Z,6.30
2019-02-19T09:30:00.039Z,6.00
2019-02-19T09:32:29.669Z,5.70
2019-02-19T09:38:31.969Z,6.00
2019-02-19T09:41:28.703Z,5.27
2019-02-19T09:43:58.640Z,6.60
2019-02-19T09:46:28.313Z,5.80
2019-02-19T09:48:57.820Z,5.70
2019-02-19T09:51:28.111Z,5.73
2019-02-19T09:54:09.743Z,5.90
2019-02-19T09:56:39.697Z,6.23
2019-02-19T09:59:09.194Z,5.83
2019-02-19T10:01:39.072Z,6.73
2019-02-19T10:04:08.618Z,5.60
2019-02-19T10:06:44.677Z,5.97
2019-02-19T10:09:14.217Z,6.00
2019-02-19T10:11:43.749Z,6.27
2019-02-19T10:14:13.307Z,7.13
2019-02-19T10:16:43.904Z,6.63
2019-02-19T10:19:13.394Z,9.93
2019-02-19T10:21:42.908Z,9.00
2019-02-19T10:24:12.771Z,6.17
2019-02-19T10:26:42.313Z,6.70
2019-02-19T10:29:11.831Z,5.83
2019-02-19T10:31:41.362Z,7.03
2019-02-19T10:34:11.102Z,6.30
2019-02-19T10:36:43.616Z,6.03
2019-02-19T10:39:13.605Z,6.83
2019-02-19T10:41:43.094Z,6.37
2019-02-19T10:44:12.674Z,6.40
2019-02-19T10:46:42.535Z,6.47
2019-02-19T10:49:12.109Z,7.33
2019-02-19T10:51:41.596Z,6.87
2019-02-19T10:54:11.143Z,6.77
2019-02-19T10:56:41.086Z,7.17
2019-02-19T10:59:10.603Z,7.37
2019-02-19T11:01:40.440Z,6.17
2019-02-19T11:04:09.945Z,6.37
2019-02-19T11:06:39.487Z,7.53
2019-02-19T11:09:08.339Z,6.90
2019-02-19T11:11:37.247Z,7.00
2019-02-19T11:14:06.748Z,6.60
2019-02-19T11:16:40.423Z,7.97
2019-02-19T11:19:09.899Z,7.40
2019-02-19T11:21:39.401Z,8.23
2019-02-19T11:24:09.725Z,8.50
2019-02-19T11:26:39.226Z,8.03
2019-02-19T11:29:08.852Z,9.47
2019-02-19T11:31:38.380Z,8.07
2019-02-19T11:34:07.879Z,8.60
2019-02-19T11:36:37.519Z,7.80
2019-02-19T11:39:07.497Z,7.30
2019-02-19T11:41:37.747Z,5.83
2019-02-19T11:44:07.250Z,6.30
2019-02-19T11:46:37.604Z,7.20
2019-02-19T11:49:07.105Z,6.90
2019-02-19T11:51:37.013Z,7.47
2019-02-19T11:54:06.499Z,7.33
2019-02-19T11:56:43.375Z,6.73
2019-02-19T11:59:21.316Z,6.60
2019-02-19T12:01:50.883Z,6.80
2019-02-19T12:04:20.575Z,7.20
2019-02-19T12:06:50.855Z,7.10
2019-02-19T12:09:20.791Z,6.50
2019-02-19T12:11:50.319Z,7.57
2019-02-19T12:14:19.888Z,7.90
2019-02-19T12:16:50.862Z,8.43
2019-02-19T12:19:20.691Z,7.67
2019-02-19T12:21:53.871Z,8.43
2019-02-19T12:24:32.782Z,8.60
2019-02-19T12:27:09.874Z,8.77
2019-02-19T12:29:39.770Z,8.17
2019-02-19T12:32:09.284Z,8.97
2019-02-19T12:34:40.086Z,8.60
2019-02-19T12:37:10.492Z,8.40
2019-02-19T12:39:40.792Z,10.57
2019-02-19T12:42:10.302Z,8.43
2019-02-19T12:44:41.037Z,9.73
2019-02-19T12:47:11.339Z,8.80
2019-02-19T12:49:40.885Z,9.13
2019-02-19T12:52:10.400Z,8.33
2019-02-19T12:54:39.935Z,8.53
2019-02-19T12:57:09.445Z,11.30
2019-02-19T12:59:39.288Z,9.50
2019-02-19T13:02:08.824Z,9.20
2019-02-19T13:04:39.493Z,10.97
2019-02-19T13:07:09.442Z,9.90
2019-02-19T13:09:39.359Z,9.80
2019-02-19T13:12:10.612Z,9.67
2019-02-19T13:14:40.234Z,11.10
2019-02-19T13:17:09.748Z,10.50
2019-02-19T13:19:39.295Z,10.70
2019-02-19T13:22:09.682Z,11.07
2019-02-19T13:24:39.587Z,11.43
2019-02-19T13:27:09.118Z,11.73
2019-02-19T13:30:16.308Z,12.60
2019-02-19T13:32:46.172Z,11.80
2019-02-19T13:35:15.731Z,12.10
2019-02-19T13:37:45.251Z,11.50
2019-02-19T13:40:15.400Z,10.03
2019-02-19T13:42:52.719Z,10.60
2019-02-19T13:45:22.382Z,10.20
2019-02-19T13:47:51.929Z,10.40
2019-02-19T13:50:21.651Z,12.40
2019-02-19T13:52:59.213Z,10.97
2019-02-19T13:55:32.657Z,11.83
2019-02-19T13:58:02.175Z,11.47
2019-02-19T14:00:33.445Z,12.00
2019-02-19T14:03:02.977Z,11.20
2019-02-19T14:05:32.877Z,12.40
2019-02-19T14:08:03.171Z,10.77
2019-02-19T14:10:33.110Z,11.70
2019-02-19T14:17:02.988Z,10.50
2019-02-19T14:19:54.915Z,11.27
2019-02-19T14:22:55.473Z,11.30
2019-02-19T14:25:46.896Z,11.97
2019-02-19T14:28:48.091Z,12.70
2019-02-19T14:31:52.043Z,11.20
2019-02-19T14:34:46.235Z,12.73
2019-02-19T14:37:40.960Z,12.10
2019-02-19T14:40:29.590Z,12.50
2019-02-19T14:43:29.550Z,12.00
2019-02-19T14:46:17.976Z,12.00
2019-02-19T14:49:05.543Z,13.03
2019-02-19T14:51:52.764Z,11.93
2019-02-19T14:54:39.540Z,11.30
2019-02-19T14:57:19.812Z,11.93
2019-02-19T15:00:08.242Z,12.00
2019-02-19T15:03:02.847Z,11.40
2019-02-19T15:05:50.908Z,11.87
2019-02-19T15:08:39.321Z,12.83
2019-02-19T15:11:27.075Z,13.10
2019-02-19T15:14:21.882Z,13.03
2019-02-19T15:17:16.770Z,15.10
2019-02-19T15:20:11.246Z,13.30
2019-02-19T15:23:47.354Z,15.10
2019-02-19T15:26:42.054Z,12.13
2019-02-19T15:29:39.628Z,12.93
2019-02-19T15:35:29.170Z,14.97
2019-02-19T15:38:24.237Z,13.40
2019-02-19T15:41:11.723Z,12.17
2019-02-19T15:44:12.534Z,13.10
2019-02-19T15:46:55.855Z,12.77
2019-02-19T15:49:47.551Z,11.87
2019-02-19T15:52:25.097Z,12.43
2019-02-19T15:55:25.536Z,12.30
2019-02-19T15:58:08.440Z,10.60
2019-02-19T16:00:43.056Z,11.10
2019-02-19T16:03:32.538Z,12.50
2019-02-19T16:06:20.979Z,11.57
2019-02-19T16:09:13.471Z,12.90
2019-02-19T16:11:48.664Z,13.30
2019-02-19T16:14:37.110Z,12.90
2019-02-19T16:17:24.702Z,13.67
2019-02-19T16:20:54.839Z,13.70
2019-02-19T16:23:52.738Z,14.00
2019-02-19T16:26:47.215Z,13.70
2019-02-19T16:29:31.816Z,13.63
2019-02-19T16:32:29.268Z,13.63
2019-02-19T16:35:30.518Z,13.17
2019-02-19T16:38:17.741Z,11.97
2019-02-19T16:41:04.155Z,12.57
2019-02-19T16:44:01.916Z,13.20
2019-02-19T16:46:46.984Z,12.57
2019-02-19T16:49:46.448Z,12.43
2019-02-19T16:52:47.196Z,12.03
2019-02-19T16:55:53.585Z,12.70
2019-02-19T16:58:40.821Z,11.77
2019-02-19T17:01:20.137Z,11.43
2019-02-19T17:04:44.789Z,11.20
2019-02-19T17:07:20.068Z,14.23
2019-02-19T17:10:07.304Z,11.73
2019-02-19T17:12:48.994Z,12.80
2019-02-19T17:16:10.098Z,13.23
2019-02-19T17:19:01.296Z,12.97
2019-02-19T17:21:43.339Z,12.53
2019-02-19T17:24:23.076Z,12.93
2019-02-19T17:27:05.550Z,12.97
2019-02-19T17:36:28.919Z,12.83
2019-02-19T17:39:14.732Z,13.40
2019-02-19T17:41:52.807Z,13.90
2019-02-19T17:44:47.085Z,22.90
2019-02-19T17:51:04.887Z,11.83
2019-02-19T17:54:11.457Z,13.40
2019-02-19T17:57:01.959Z,17.00
2019-02-19T18:00:09.884Z,18.90
2019-02-19T18:02:52.876Z,18.93
2019-02-19T18:05:44.253Z,15.20
2019-02-19T18:08:32.635Z,15.50
2019-02-19T18:11:23.885Z,16.23
2019-02-19T18:14:27.453Z,22.30
2019-02-19T18:17:18.470Z,17.53
2019-02-19T18:19:47.956Z,13.90
2019-02-19T18:22:17.492Z,13.57
2019-02-19T18:25:06.739Z,13.20
2019-02-19T18:27:36.276Z,11.80
2019-02-19T18:30:06.345Z,13.07
2019-02-19T18:32:36.408Z,14.17
2019-02-19T18:35:06.743Z,13.80
2019-02-19T18:37:53.874Z,13.80
2019-02-19T18:40:23.384Z,12.20
2019-02-19T18:42:52.942Z,11.23
2019-02-19T18:45:22.458Z,12.47
2019-02-19T18:47:52.745Z,11.93
2019-02-19T18:50:22.291Z,10.57
2019-02-19T18:52:51.793Z,11.13
2019-02-19T18:55:21.413Z,9.30
2019-02-19T18:57:51.500Z,8.53
2019-02-19T19:00:21.081Z,8.40
2019-02-19T19:03:17.157Z,11.07
2019-02-19T19:06:18.348Z,9.60
2019-02-19T19:09:05.281Z,11.13
2019-02-19T19:11:35.005Z,10.70
2019-02-19T19:14:05.685Z,11.67
2019-02-19T19:16:41.200Z,11.77
2019-02-19T19:19:13.324Z,12.37
2019-02-19T19:21:43.969Z,11.27
2019-02-19T19:27:19.039Z,9.87
2019-02-19T19:29:48.906Z,11.03
2019-02-19T19:32:18.400Z,10.67
2019-02-19T19:34:47.950Z,12.87
2019-02-19T19:37:17.450Z,12.87
2019-02-19T19:39:55.289Z,13.30
2019-02-19T19:42:24.825Z,19.47
2019-02-19T19:44:54.373Z,18.87
2019-02-19T19:47:24.733Z,17.87
2019-02-19T19:49:55.225Z,16.80
2019-02-19T19:52:30.188Z,17.47
2019-02-19T19:55:00.277Z,16.10
2019-02-19T19:57:29.992Z,16.93
2019-02-19T19:59:59.530Z,17.53
2019-02-19T20:02:35.696Z,17.20
2019-02-19T20:05:24.146Z,17.73
2019-02-19T20:07:54.169Z,17.97
2019-02-19T20:10:23.738Z,17.97
2019-02-19T20:12:53.734Z,18.20
2019-02-19T20:18:52.851Z,16.93
2019-02-19T20:21:45.356Z,15.67
2019-02-19T20:24:20.667Z,14.27
2019-02-19T20:27:02.410Z,15.03
2019-02-19T20:29:34.106Z,16.10
2019-02-19T20:32:37.124Z,14.47
2019-02-19T20:35:07.765Z,14.33
2019-02-19T20:37:37.972Z,13.70
2019-02-19T20:40:30.599Z,13.93
2019-02-19T20:43:02.930Z,15.90
2019-02-19T20:45:32.577Z,14.60
2019-02-19T20:48:11.484Z,13.57
2019-02-19T20:50:43.384Z,13.90
2019-02-19T20:53:12.999Z,14.00
2019-02-19T20:59:12.373Z,13.20
2019-02-19T21:01:45.199Z,12.97
2019-02-19T21:04:14.761Z,12.80
2019-02-19T21:07:18.764Z,12.63
2019-02-19T21:09:48.781Z,11.60
2019-02-19T21:12:24.416Z,10.90
2019-02-19T21:14:54.370Z,12.00
2019-02-19T21:17:24.256Z,13.30
2019-02-19T21:19:54.177Z,14.10
2019-02-19T21:22:23.758Z,13.07
2019-02-19T21:24:53.392Z,13.03
2019-02-19T21:27:38.192Z,11.80
2019-02-19T21:30:08.969Z,13.07
2019-02-19T21:32:39.256Z,12.20
2019-02-19T21:35:18.844Z,12.77
2019-02-19T21:37:48.436Z,11.70
2019-02-19T21:40:18.043Z,11.57
2019-02-19T21:42:47.922Z,11.77
2019-02-19T21:45:30.893Z,10.70
2019-02-19T21:48:00.543Z,11.63
2019-02-19T21:50:30.142Z,12.90
2019-02-19T21:52:59.791Z,11.30
2019-02-19T21:55:40.485Z,13.33
2019-02-19T21:58:10.455Z,12.57
2019-02-19T22:00:58.119Z,12.43
2019-02-19T22:03:34.989Z,14.23
2019-02-19T22:06:04.551Z,16.95
2019-02-19T22:08:34.161Z,15.37
2019-02-19T22:11:04.036Z,14.97
2019-02-19T22:20:49.126Z,15.90
2019-02-19T22:23:18.736Z,16.53
2019-02-19T22:25:56.844Z,15.47
2019-02-19T22:28:26.490Z,16.20
2019-02-19T22:30:59.215Z,16.93
2019-02-19T22:33:29.166Z,16.57
2019-02-19T22:35:58.827Z,15.80
2019-02-19T22:38:28.405Z,17.27
2019-02-19T22:40:58.320Z,16.27
2019-02-19T22:43:27.811Z,15.63
2019-02-19T22:45:57.362Z,15.50
2019-02-19T22:48:26.945Z,15.50
2019-02-19T22:50:56.490Z,15.10
2019-02-19T22:53:45.074Z,15.27
2019-02-19T22:56:32.286Z,15.40
2019-02-19T22:59:01.840Z,14.77
2019-02-19T23:01:50.808Z,13.87
2019-02-19T23:04:22.599Z,15.00
2019-02-19T23:06:52.939Z,13.97
2019-02-19T23:09:22.864Z,14.17
2019-02-19T23:11:52.783Z,13.80
2019-02-19T23:14:22.343Z,13.87
2019-02-19T23:16:51.903Z,13.57
2019-02-19T23:19:21.701Z,15.13
2019-02-19T23:21:51.624Z,15.00
2019-02-19T23:24:40.745Z,14.70
2019-02-19T23:27:10.378Z,14.67
2019-02-19T23:29:40.001Z,15.00
2019-02-19T23:32:09.920Z,14.33
2019-02-19T23:34:39.467Z,15.00
2019-02-19T23:37:17.028Z,16.10
2019-02-19T23:39:46.605Z,14.00
2019-02-19T23:42:44.531Z,15.20
2019-02-19T23:45:14.412Z,15.53
2019-02-19T23:47:43.960Z,14.47
2019-02-19T23:50:13.646Z,15.00
2019-02-19T23:52:44.018Z,15.83
2019-02-19T23:55:20.127Z,15.10
2019-02-19T23:57:50.053Z,14.93
